Time;durP1;ratioP1;P1;durP2;ratioP2;P2;SDS_P1;SDS_P2;PMS_P1;PMS_P2;Temp;Humidity;BMP_temperature;BMP_pressure;BME280_temperature;BME280_humidity;BME280_pressure;Samples;Min_cycle;Max_cycle;Signal;HPM_P1;HPM_P2
2023/01/05 00:01:40;;;;;;;0.00;0.00;;;;;;;;;;7377726;19;20157;-69
2023/01/05 00:04:12;;;;;;;0.00;0.00;;;;;;;;;;7379596;19;20607;-70
2023/01/05 00:06:42;;;;;;;0.00;0.00;;;;;;;;;;7379910;19;20149;-68
2023/01/05 00:09:14;;;;;;;0.00;0.00;;;;;;;;;;7378359;19;20174;-69
2023/01/05 00:22:37;;;;;;;0.00;0.00;;;;;;;;;;7377662;19;20144;-68
2023/01/05 00:25:07;;;;;;;0.10;0.10;;;;;;;;;;7377941;19;20140;-68
2023/01/05 00:27:37;;;;;;;0.00;0.00;;;;;;;;;;7374893;19;20184;-68
2023/01/05 00:30:06;;;;;;;0.10;0.10;;;;;;;;;;7377773;19;20141;-68
2023/01/05 00:32:35;;;;;;;0.00;0.00;;;;;;;;;;7377881;19;20178;-68
2023/01/05 00:35:07;;;;;;;0.00;0.00;;;;;;;;;;7377609;19;20476;-68
2023/01/05 00:37:37;;;;;;;0.10;0.10;;;;;;;;;;7378031;19;20642;-69
2023/01/05 00:40:07;;;;;;;0.10;0.10;;;;;;;;;;7377797;19;20216;-71
2023/01/05 00:42:36;;;;;;;0.10;0.10;;;;;;;;;;7378075;19;20200;-69
2023/01/05 00:45:07;;;;;;;0.00;0.00;;;;;;;;;;7379531;19;20137;-69
2023/01/05 00:47:36;;;;;;;0.10;0.10;;;;;;;;;;7375882;19;20191;-69
2023/01/05 00:50:09;;;;;;;0.00;0.00;;;;;;;;;;7377617;19;20153;-67
2023/01/05 00:52:38;;;;;;;0.07;0.07;;;;;;;;;;7378033;19;20602;-69
2023/01/05 00:55:07;;;;;;;0.07;0.07;;;;;;;;;;7376489;19;20661;-70
2023/01/05 00:57:37;;;;;;;0.00;0.00;;;;;;;;;;7374044;19;20244;-69
2023/01/05 01:00:08;;;;;;;0.10;0.10;;;;;;;;;;7376313;19;20148;-69
2023/01/05 01:02:37;;;;;;;0.00;0.00;;;;;;;;;;7376080;19;20141;-69
2023/01/05 01:05:10;;;;;;;0.10;0.10;;;;;;;;;;7377538;19;20663;-69
2023/01/05 01:07:38;;;;;;;0.10;0.10;;;;;;;;;;7373786;19;20173;-70
2023/01/05 01:10:09;;;;;;;0.00;0.00;;;;;;;;;;7378758;19;20603;-68
2023/01/05 01:12:38;;;;;;;0.00;0.00;;;;;;;;;;7377458;19;20200;-68
2023/01/05 01:15:08;;;;;;;0.00;0.00;;;;;;;;;;7375741;19;20148;-67
2023/01/05 01:17:37;;;;;;;0.00;0.00;;;;;;;;;;7373807;19;20662;-68
2023/01/05 01:20:10;;;;;;;0.00;0.00;;;;;;;;;;7370742;19;20626;-70
2023/01/05 01:22:39;;;;;;;0.00;0.00;;;;;;;;;;7373926;19;20642;-69
2023/01/05 01:25:10;;;;;;;0.00;0.00;;;;;;;;;;7373778;19;20165;-69
2023/01/05 01:27:39;;;;;;;0.00;0.00;;;;;;;;;;7375816;19;20675;-68
2023/01/05 01:30:09;;;;;;;0.00;0.00;;;;;;;;;;7375603;19;20177;-69
2023/01/05 01:32:38;;;;;;;0.00;0.00;;;;;;;;;;7376818;19;20615;-68
2023/01/05 01:35:12;;;;;;;0.10;0.10;;;;;;;;;;7374872;19;20639;-67
2023/01/05 01:37:41;;;;;;;0.00;0.00;;;;;;;;;;7374276;19;20191;-68
2023/01/05 01:40:12;;;;;;;0.10;0.10;;;;;;;;;;7376724;19;20143;-68
2023/01/05 01:42:41;;;;;;;0.03;0.03;;;;;;;;;;7373557;19;20160;-68
2023/01/05 01:45:17;;;;;;;0.10;0.10;;;;;;;;;;7374794;19;20169;-67
2023/01/05 01:47:49;;;;;;;0.00;0.00;;;;;;;;;;7371882;19;20168;-68
2023/01/05 01:50:22;;;;;;;0.00;0.00;;;;;;;;;;7375837;19;20607;-68
2023/01/05 01:52:52;;;;;;;0.00;0.00;;;;;;;;;;7373801;19;20232;-68
2023/01/05 01:55:21;;;;;;;0.00;0.00;;;;;;;;;;7374583;19;20646;-69
2023/01/05 01:57:52;;;;;;;0.10;0.10;;;;;;;;;;7371803;19;20654;-69
2023/01/05 02:00:21;;;;;;;0.00;0.00;;;;;;;;;;7374166;19;20627;-69
2023/01/05 02:02:54;;;;;;;0.07;0.07;;;;;;;;;;7371783;19;20611;-68
2023/01/05 02:05:30;;;;;;;0.10;0.10;;;;;;;;;;7373281;19;20626;-69
2023/01/05 02:07:59;;;;;;;0.00;0.00;;;;;;;;;;7372312;19;20187;-69
2023/01/05 02:10:36;;;;;;;0.00;0.00;;;;;;;;;;7374799;19;20148;-69
2023/01/05 02:13:10;;;;;;;0.00;0.00;;;;;;;;;;7372865;19;20691;-68
2023/01/05 02:15:47;;;;;;;0.10;0.10;;;;;;;;;;7372402;19;20152;-68
2023/01/05 02:18:29;;;;;;;0.03;0.03;;;;;;;;;;7375997;19;20136;-69
2023/01/05 02:21:10;;;;;;;0.00;0.00;;;;;;;;;;7373593;19;20683;-68
2023/01/05 02:23:56;;;;;;;0.10;0.10;;;;;;;;;;7372712;19;20626;-68
2023/01/05 02:26:46;;;;;;;0.10;0.10;;;;;;;;;;7372997;19;20723;-68
2023/01/05 02:29:31;;;;;;;0.07;0.07;;;;;;;;;;7373532;19;20622;-68
2023/01/05 02:32:08;;;;;;;0.00;0.00;;;;;;;;;;7371757;19;20156;-68
2023/01/05 02:34:42;;;;;;;0.00;0.00;;;;;;;;;;7372741;19;20160;-68
2023/01/05 02:37:16;;;;;;;0.00;0.00;;;;;;;;;;7376525;19;20699;-67
2023/01/05 02:39:50;;;;;;;0.00;0.00;;;;;;;;;;7381653;19;20626;-68
2023/01/05 02:42:23;;;;;;;0.10;0.10;;;;;;;;;;7380455;19;20668;-68
2023/01/05 02:44:52;;;;;;;0.10;0.10;;;;;;;;;;7383016;19;20140;-70
2023/01/05 02:47:37;;;;;;;0.00;0.00;;;;;;;;;;7379426;19;20177;-69
2023/01/05 02:50:14;;;;;;;0.00;0.00;;;;;;;;;;7381126;19;20145;-68
2023/01/05 02:52:46;;;;;;;0.10;0.10;;;;;;;;;;7381061;19;20152;-68
2023/01/05 02:55:20;;;;;;;0.00;0.00;;;;;;;;;;7381360;19;20164;-68
2023/01/05 02:57:52;;;;;;;0.00;0.00;;;;;;;;;;7378647;19;20263;-68
2023/01/05 03:00:26;;;;;;;0.10;0.10;;;;;;;;;;7382345;19;20605;-68
2023/01/05 03:02:58;;;;;;;0.10;0.10;;;;;;;;;;7379169;19;20156;-68
2023/01/05 03:05:33;;;;;;;0.00;0.00;;;;;;;;;;7380287;19;20709;-69
2023/01/05 03:08:21;;;;;;;0.00;0.00;;;;;;;;;;7381166;19;20149;-68
2023/01/05 03:13:42;;;;;;;0.10;0.10;;;;;;;;;;7384086;19;21267;-67
2023/01/05 03:16:18;;;;;;;0.10;0.10;;;;;;;;;;7379468;19;20176;-70
2023/01/05 03:38:01;;;;;;;0.00;0.00;;;;;;;;;;7377734;19;20180;-67
2023/01/05 03:40:35;;;;;;;0.10;0.10;;;;;;;;;;7380365;19;20153;-67
2023/01/05 03:43:06;;;;;;;0.00;0.00;;;;;;;;;;7378374;19;20228;-69
2023/01/05 03:45:37;;;;;;;0.00;0.00;;;;;;;;;;7379644;19;20157;-69
2023/01/05 03:48:07;;;;;;;0.10;0.10;;;;;;;;;;7376151;19;20199;-69
2023/01/05 03:50:36;;;;;;;0.10;0.10;;;;;;;;;;7380405;19;20160;-69
2023/01/05 03:53:09;;;;;;;0.00;0.00;;;;;;;;;;7379567;19;20164;-69
2023/01/05 03:55:38;;;;;;;0.00;0.00;;;;;;;;;;7379854;19;20186;-66
2023/01/05 03:58:08;;;;;;;0.00;0.00;;;;;;;;;;7379417;19;20219;-69
2023/01/05 04:00:37;;;;;;;0.00;0.00;;;;;;;;;;7379246;19;20163;-69
2023/01/05 04:03:12;;;;;;;0.00;0.00;;;;;;;;;;7378084;19;20163;-68
2023/01/05 04:05:42;;;;;;;0.00;0.00;;;;;;;;;;7378506;19;20148;-67
2023/01/05 04:08:15;;;;;;;0.00;0.00;;;;;;;;;;7377692;19;20615;-67
2023/01/05 04:10:44;;;;;;;0.00;0.00;;;;;;;;;;7377998;19;20165;-67
2023/01/05 04:13:15;;;;;;;0.10;0.10;;;;;;;;;;7375222;19;20180;-68
2023/01/05 04:15:45;;;;;;;0.07;0.07;;;;;;;;;;7375237;19;20691;-69
2023/01/05 04:18:15;;;;;;;0.00;0.00;;;;;;;;;;7378022;19;20227;-68
2023/01/05 04:20:45;;;;;;;0.10;0.10;;;;;;;;;;7376870;19;20157;-69
2023/01/05 04:23:18;;;;;;;0.03;0.03;;;;;;;;;;7378989;19;20161;-68
2023/01/05 04:25:49;;;;;;;0.03;0.03;;;;;;;;;;7380356;19;20141;-66
2023/01/05 04:28:23;;;;;;;0.07;0.07;;;;;;;;;;7379210;19;20256;-68
2023/01/05 04:30:56;;;;;;;0.03;0.03;;;;;;;;;;7378515;19;20159;-66
2023/01/05 04:33:27;;;;;;;0.00;0.00;;;;;;;;;;7378071;19;20160;-68
2023/01/05 04:35:57;;;;;;;0.00;0.00;;;;;;;;;;7376819;19;20607;-69
2023/01/05 04:38:32;;;;;;;0.03;0.03;;;;;;;;;;7377370;19;20178;-67
2023/01/05 04:41:02;;;;;;;0.00;0.00;;;;;;;;;;7377646;19;20191;-67
2023/01/05 04:43:31;;;;;;;0.10;0.10;;;;;;;;;;7375318;19;20148;-68
2023/01/05 04:46:02;;;;;;;0.00;0.00;;;;;;;;;;7377270;19;20156;-67
2023/01/05 04:48:33;;;;;;;0.00;0.00;;;;;;;;;;7376456;19;20160;-67
2023/01/05 04:51:02;;;;;;;0.00;0.00;;;;;;;;;;7377001;19;20203;-66
2023/01/05 04:53:39;;;;;;;0.00;0.00;;;;;;;;;;7378166;19;20153;-70
2023/01/05 04:56:11;;;;;;;0.00;0.00;;;;;;;;;;7375098;19;20183;-66
2023/01/05 04:58:44;;;;;;;0.00;0.00;;;;;;;;;;7375835;19;20643;-67
2023/01/05 05:01:15;;;;;;;0.00;0.00;;;;;;;;;;7377926;19;20141;-67
2023/01/05 05:03:46;;;;;;;0.00;0.00;;;;;;;;;;7376015;19;20153;-67
2023/01/05 05:06:19;;;;;;;0.00;0.00;;;;;;;;;;7376853;19;20631;-65
2023/01/05 05:08:53;;;;;;;0.00;0.00;;;;;;;;;;7377258;19;20165;-68
2023/01/05 05:11:23;;;;;;;0.00;0.00;;;;;;;;;;7373787;19;20183;-68
2023/01/05 05:13:53;;;;;;;0.00;0.00;;;;;;;;;;7376383;19;20156;-69
2023/01/05 05:16:22;;;;;;;0.00;0.00;;;;;;;;;;7375948;19;20184;-70
2023/01/05 05:18:52;;;;;;;0.00;0.00;;;;;;;;;;7378313;19;20219;-69
2023/01/05 05:21:26;;;;;;;0.00;0.00;;;;;;;;;;7375754;19;20200;-67
2023/01/05 05:23:58;;;;;;;0.00;0.00;;;;;;;;;;7375830;19;20168;-67
2023/01/05 05:26:27;;;;;;;0.10;0.10;;;;;;;;;;7376162;19;20211;-67
2023/01/05 05:28:57;;;;;;;0.00;0.00;;;;;;;;;;7375874;19;20156;-69
2023/01/05 05:31:26;;;;;;;0.00;0.00;;;;;;;;;;7377122;19;20164;-69
2023/01/05 05:33:55;;;;;;;0.00;0.00;;;;;;;;;;7375768;19;20161;-68
2023/01/05 05:36:24;;;;;;;0.00;0.00;;;;;;;;;;7378007;19;20153;-67
2023/01/05 05:38:55;;;;;;;0.10;0.10;;;;;;;;;;7378235;19;20144;-68
2023/01/05 05:41:27;;;;;;;0.10;0.10;;;;;;;;;;7377436;19;20212;-68
2023/01/05 05:43:59;;;;;;;0.00;0.00;;;;;;;;;;7376485;19;20141;-68
2023/01/05 05:46:29;;;;;;;0.00;0.00;;;;;;;;;;7379846;19;20183;-67
2023/01/05 05:49:01;;;;;;;0.00;0.00;;;;;;;;;;7378644;19;20153;-68
2023/01/05 05:51:31;;;;;;;0.00;0.00;;;;;;;;;;7376153;19;20206;-68
2023/01/05 05:54:00;;;;;;;0.00;0.00;;;;;;;;;;7379026;19;20141;-68
2023/01/05 05:56:32;;;;;;;0.07;0.07;;;;;;;;;;7376824;19;20156;-67
2023/01/05 05:59:01;;;;;;;0.00;0.00;;;;;;;;;;7376767;19;20401;-69
2023/01/05 06:01:31;;;;;;;0.10;0.10;;;;;;;;;;7377383;19;20133;-67
2023/01/05 06:04:00;;;;;;;0.00;0.00;;;;;;;;;;7377947;19;20141;-67
2023/01/05 06:06:29;;;;;;;0.00;0.00;;;;;;;;;;7375520;19;20216;-67
2023/01/05 06:08:58;;;;;;;0.00;0.00;;;;;;;;;;7376476;19;20220;-69
2023/01/05 06:11:28;;;;;;;0.00;0.00;;;;;;;;;;7375029;19;20152;-68
2023/01/05 06:14:01;;;;;;;0.00;0.00;;;;;;;;;;7377662;19;20503;-67
2023/01/05 06:16:30;;;;;;;0.00;0.00;;;;;;;;;;7376171;19;20203;-68
2023/01/05 06:19:00;;;;;;;0.00;0.00;;;;;;;;;;7374854;19;20152;-68
2023/01/05 06:21:29;;;;;;;0.00;0.00;;;;;;;;;;7375533;19;20220;-67
2023/01/05 06:23:58;;;;;;;0.03;0.03;;;;;;;;;;7374143;19;20183;-68
2023/01/05 06:26:27;;;;;;;0.00;0.00;;;;;;;;;;7375703;19;20159;-68
2023/01/05 06:28:56;;;;;;;0.00;0.00;;;;;;;;;;7376421;19;20137;-65
2023/01/05 06:31:28;;;;;;;0.00;0.00;;;;;;;;;;7376175;19;20136;-65
2023/01/05 06:33:57;;;;;;;0.03;0.03;;;;;;;;;;7377007;19;20137;-66
2023/01/05 06:36:28;;;;;;;0.10;0.10;;;;;;;;;;7375601;19;20159;-66
2023/01/05 06:38:57;;;;;;;0.00;0.00;;;;;;;;;;7377203;19;20133;-65
2023/01/05 06:41:26;;;;;;;0.00;0.00;;;;;;;;;;7373946;19;20145;-66
2023/01/05 06:43:55;;;;;;;0.00;0.00;;;;;;;;;;7373404;19;20145;-65
2023/01/05 06:46:25;;;;;;;0.10;0.10;;;;;;;;;;7375420;19;20595;-65
2023/01/05 06:48:57;;;;;;;0.00;0.00;;;;;;;;;;7376604;19;20144;-65
2023/01/05 06:51:26;;;;;;;0.07;0.07;;;;;;;;;;7374602;19;20156;-65
2023/01/05 06:53:56;;;;;;;0.00;0.00;;;;;;;;;;7375579;19;20148;-65
2023/01/05 06:56:25;;;;;;;0.10;0.10;;;;;;;;;;7373427;19;20273;-66
2023/01/05 06:58:54;;;;;;;0.00;0.00;;;;;;;;;;7377167;19;20615;-66
2023/01/05 07:01:23;;;;;;;0.03;0.03;;;;;;;;;;7373833;19;20191;-66
2023/01/05 07:03:53;;;;;;;0.00;0.00;;;;;;;;;;7375488;19;20137;-65
2023/01/05 07:06:24;;;;;;;0.00;0.00;;;;;;;;;;7372436;19;20191;-66
2023/01/05 07:08:53;;;;;;;0.03;0.03;;;;;;;;;;7374376;19;20164;-68
2023/01/05 07:11:23;;;;;;;0.00;0.00;;;;;;;;;;7375597;19;20133;-65
2023/01/05 07:13:52;;;;;;;0.00;0.00;;;;;;;;;;7375289;19;20137;-66
2023/01/05 07:16:21;;;;;;;0.10;0.10;;;;;;;;;;7375890;19;20204;-66
2023/01/05 07:18:50;;;;;;;0.07;0.07;;;;;;;;;;7373756;19;20639;-66
2023/01/05 07:21:22;;;;;;;0.00;0.00;;;;;;;;;;7373156;19;20156;-66
2023/01/05 07:23:53;;;;;;;0.00;0.00;;;;;;;;;;7378935;19;20159;-65
2023/01/05 07:26:23;;;;;;;0.00;0.00;;;;;;;;;;7380913;19;20180;-65
2023/01/05 07:28:52;;;;;;;0.00;0.00;;;;;;;;;;7383134;19;20170;-65
2023/01/05 07:31:21;;;;;;;0.10;0.10;;;;;;;;;;7382507;19;20137;-65
2023/01/05 07:33:50;;;;;;;0.00;0.00;;;;;;;;;;7383041;19;20162;-64
2023/01/05 07:36:20;;;;;;;0.00;0.00;;;;;;;;;;7380953;19;20160;-65
2023/01/05 07:38:49;;;;;;;0.00;0.00;;;;;;;;;;7381182;19;20153;-65
2023/01/05 07:41:21;;;;;;;0.00;0.00;;;;;;;;;;7382203;19;20200;-66
2023/01/05 07:43:51;;;;;;;0.00;0.00;;;;;;;;;;7381904;19;20133;-66
2023/01/05 07:46:20;;;;;;;0.00;0.00;;;;;;;;;;7378560;19;20646;-68
2023/01/05 07:48:49;;;;;;;0.00;0.00;;;;;;;;;;7381724;19;20162;-66
2023/01/05 07:51:19;;;;;;;0.00;0.00;;;;;;;;;;7380076;19;20168;-66
2023/01/05 07:53:48;;;;;;;0.00;0.00;;;;;;;;;;7381110;19;20157;-66
2023/01/05 07:56:17;;;;;;;0.00;0.00;;;;;;;;;;7379162;19;20662;-66
2023/01/05 07:58:49;;;;;;;0.00;0.00;;;;;;;;;;7383165;19;20179;-66
2023/01/05 08:01:19;;;;;;;0.00;0.00;;;;;;;;;;7379755;19;20165;-66
2023/01/05 08:03:48;;;;;;;0.00;0.00;;;;;;;;;;7380995;19;20157;-66
2023/01/05 08:06:18;;;;;;;0.00;0.00;;;;;;;;;;7378640;19;20180;-68
2023/01/05 08:08:48;;;;;;;0.00;0.00;;;;;;;;;;7381723;19;20133;-65
2023/01/05 08:11:19;;;;;;;0.00;0.00;;;;;;;;;;7379410;19;20642;-66
2023/01/05 08:14:04;;;;;;;0.00;0.00;;;;;;;;;;7379022;19;20182;-67
2023/01/05 08:16:34;;;;;;;0.00;0.00;;;;;;;;;;7378241;19;20205;-66
2023/01/05 08:19:04;;;;;;;0.00;0.00;;;;;;;;;;7378535;19;20153;-68
2023/01/05 08:21:33;;;;;;;0.10;0.10;;;;;;;;;;7378388;19;20157;-67
2023/01/05 08:24:03;;;;;;;0.00;0.00;;;;;;;;;;7377694;19;20163;-66
2023/01/05 08:26:32;;;;;;;0.00;0.00;;;;;;;;;;7377842;19;20646;-67
2023/01/05 08:29:07;;;;;;;0.00;0.00;;;;;;;;;;7379307;19;20216;-69
2023/01/05 08:31:37;;;;;;;0.10;0.10;;;;;;;;;;7380463;19;20117;-68
2023/01/05 08:34:06;;;;;;;0.00;0.00;;;;;;;;;;7375406;19;20148;-68
2023/01/05 08:36:35;;;;;;;0.00;0.00;;;;;;;;;;7380210;19;20149;-65
2023/01/05 08:39:04;;;;;;;0.00;0.00;;;;;;;;;;7380579;19;20144;-65
2023/01/05 08:41:35;;;;;;;0.00;0.00;;;;;;;;;;7379900;19;20156;-68
2023/01/05 08:44:09;;;;;;;0.00;0.00;;;;;;;;;;7378275;19;20157;-66
2023/01/05 08:46:38;;;;;;;0.00;0.00;;;;;;;;;;7378902;19;20757;-69
2023/01/05 08:49:11;;;;;;;0.00;0.00;;;;;;;;;;7380875;19;20140;-68
2023/01/05 08:51:41;;;;;;;0.00;0.00;;;;;;;;;;7380257;19;20137;-66
2023/01/05 08:54:11;;;;;;;0.10;0.10;;;;;;;;;;7377207;19;20144;-66
2023/01/05 08:56:41;;;;;;;0.10;0.10;;;;;;;;;;7377421;19;20180;-68
2023/01/05 08:59:14;;;;;;;0.00;0.00;;;;;;;;;;7377992;19;20154;-66
2023/01/05 09:01:46;;;;;;;0.00;0.00;;;;;;;;;;7375843;19;20148;-66
2023/01/05 09:04:15;;;;;;;0.10;0.10;;;;;;;;;;7376845;19;20160;-65
2023/01/05 09:06:44;;;;;;;0.00;0.00;;;;;;;;;;7376412;19;20670;-68
2023/01/05 09:09:13;;;;;;;0.00;0.00;;;;;;;;;;7379239;19;20129;-66
2023/01/05 09:11:43;;;;;;;0.00;0.00;;;;;;;;;;7380667;19;20133;-67
2023/01/05 09:14:19;;;;;;;0.00;0.00;;;;;;;;;;7378728;19;20137;-66
2023/01/05 09:16:48;;;;;;;0.00;0.00;;;;;;;;;;7379832;19;20203;-67
2023/01/05 09:19:17;;;;;;;0.00;0.00;;;;;;;;;;7376495;19;20153;-68
2023/01/05 09:21:46;;;;;;;0.10;0.10;;;;;;;;;;7378131;19;20182;-67
2023/01/05 09:24:15;;;;;;;0.00;0.00;;;;;;;;;;7378818;19;20133;-66
2023/01/05 09:26:45;;;;;;;0.03;0.03;;;;;;;;;;7378118;19;20141;-66
2023/01/05 09:29:16;;;;;;;0.00;0.00;;;;;;;;;;7378567;19;20137;-67
2023/01/05 09:31:46;;;;;;;0.00;0.00;;;;;;;;;;7377020;19;20153;-68
2023/01/05 09:34:15;;;;;;;0.10;0.10;;;;;;;;;;7377927;19;20141;-68
2023/01/05 09:36:45;;;;;;;0.00;0.00;;;;;;;;;;7377468;19;20180;-66
2023/01/05 09:39:14;;;;;;;0.00;0.00;;;;;;;;;;7375581;19;20160;-66
2023/01/05 09:41:46;;;;;;;0.00;0.00;;;;;;;;;;7376197;19;20211;-69
2023/01/05 09:44:27;;;;;;;0.00;0.00;;;;;;;;;;7378103;19;20145;-67
2023/01/05 09:46:57;;;;;;;0.03;0.03;;;;;;;;;;7375039;19;20215;-66
2023/01/05 09:49:27;;;;;;;0.10;0.10;;;;;;;;;;7378236;19;20253;-66
2023/01/05 09:52:00;;;;;;;0.00;0.00;;;;;;;;;;7376376;19;20149;-67
2023/01/05 09:54:31;;;;;;;0.00;0.00;;;;;;;;;;7375231;19;20152;-66
2023/01/05 09:57:00;;;;;;;0.00;0.00;;;;;;;;;;7374750;19;20243;-67
2023/01/05 09:59:34;;;;;;;0.00;0.00;;;;;;;;;;7376227;19;20161;-65
2023/01/05 10:02:08;;;;;;;0.00;0.00;;;;;;;;;;7374410;19;20148;-66
2023/01/05 10:04:38;;;;;;;0.00;0.00;;;;;;;;;;7374673;19;20160;-66
2023/01/05 10:07:09;;;;;;;0.00;0.00;;;;;;;;;;7375474;19;20171;-67
2023/01/05 10:09:40;;;;;;;0.00;0.00;;;;;;;;;;7375634;19;20611;-67
2023/01/05 10:15:04;;;;;;;0.00;0.00;;;;;;;;;;7374946;19;20231;-67
2023/01/05 10:17:38;;;;;;;0.00;0.00;;;;;;;;;;7373082;19;20843;-66
2023/01/05 10:20:16;;;;;;;0.00;0.00;;;;;;;;;;7375289;19;20168;-67
2023/01/05 10:22:49;;;;;;;0.00;0.00;;;;;;;;;;7374360;19;20153;-66
2023/01/05 10:25:21;;;;;;;0.00;0.00;;;;;;;;;;7372399;19;20225;-66
2023/01/05 10:27:52;;;;;;;0.00;0.00;;;;;;;;;;7373952;19;20161;-66
2023/01/05 10:30:26;;;;;;;0.00;0.00;;;;;;;;;;7373564;19;20159;-66
2023/01/05 10:32:59;;;;;;;0.00;0.00;;;;;;;;;;7375503;19;20203;-66
2023/01/05 10:35:39;;;;;;;0.00;0.00;;;;;;;;;;7374300;19;20144;-66
2023/01/05 10:38:12;;;;;;;0.00;0.00;;;;;;;;;;7372928;19;20251;-66
2023/01/05 10:40:47;;;;;;;0.03;0.03;;;;;;;;;;7374859;19;20136;-66
2023/01/05 10:43:31;;;;;;;0.00;0.00;;;;;;;;;;7375730;19;20199;-66
2023/01/05 10:46:03;;;;;;;0.00;0.00;;;;;;;;;;7373481;19;20133;-66
2023/01/05 10:48:33;;;;;;;0.00;0.00;;;;;;;;;;7376416;19;20192;-66
2023/01/05 10:51:03;;;;;;;0.00;0.00;;;;;;;;;;7374537;19;20155;-66
2023/01/05 10:53:32;;;;;;;0.00;0.00;;;;;;;;;;7376272;19;20158;-65
2023/01/05 10:56:03;;;;;;;0.00;0.00;;;;;;;;;;7374713;19;20172;-68
2023/01/05 10:58:33;;;;;;;0.00;0.00;;;;;;;;;;7380276;19;20164;-66
2023/01/05 11:01:06;;;;;;;0.00;0.00;;;;;;;;;;7382718;19;20188;-68
2023/01/05 11:03:37;;;;;;;0.00;0.00;;;;;;;;;;7381495;19;20160;-67
2023/01/05 11:06:07;;;;;;;0.00;0.00;;;;;;;;;;7380005;19;20144;-67
2023/01/05 11:08:37;;;;;;;0.00;0.00;;;;;;;;;;7381555;19;20188;-69
2023/01/05 11:11:08;;;;;;;0.00;0.00;;;;;;;;;;7381892;19;20182;-66
2023/01/05 11:13:39;;;;;;;0.00;0.00;;;;;;;;;;7381706;19;20159;-67
2023/01/05 11:16:16;;;;;;;0.00;0.00;;;;;;;;;;7382728;19;20184;-67
2023/01/05 11:18:50;;;;;;;0.07;0.07;;;;;;;;;;7382734;19;20140;-67
2023/01/05 11:21:20;;;;;;;0.00;0.00;;;;;;;;;;7382428;19;20129;-66
2023/01/05 11:23:50;;;;;;;0.00;0.00;;;;;;;;;;7382367;19;20153;-67
2023/01/05 11:26:25;;;;;;;0.00;0.00;;;;;;;;;;7381122;19;20149;-67
2023/01/05 11:29:05;;;;;;;0.00;0.00;;;;;;;;;;7382336;19;20128;-68
2023/01/05 11:31:41;;;;;;;0.00;0.00;;;;;;;;;;7383243;19;20141;-67
2023/01/05 11:34:17;;;;;;;0.10;0.10;;;;;;;;;;7382450;19;20136;-66
2023/01/05 11:36:46;;;;;;;0.10;0.10;;;;;;;;;;7380048;19;20176;-69
2023/01/05 11:39:21;;;;;;;0.00;0.00;;;;;;;;;;7380960;19;20157;-68
2023/01/05 11:41:51;;;;;;;0.10;0.10;;;;;;;;;;7379493;19;20156;-68
2023/01/05 11:44:23;;;;;;;0.00;0.00;;;;;;;;;;7379934;19;20161;-66
2023/01/05 11:46:55;;;;;;;0.00;0.00;;;;;;;;;;7378272;19;20192;-67
2023/01/05 11:49:24;;;;;;;0.10;0.10;;;;;;;;;;7382838;19;20193;-66
2023/01/05 11:51:53;;;;;;;0.00;0.00;;;;;;;;;;7380551;19;20797;-68
2023/01/05 11:54:34;;;;;;;0.10;0.10;;;;;;;;;;7382822;19;20137;-68
2023/01/05 11:57:15;;;;;;;0.00;0.00;;;;;;;;;;7379672;19;20180;-67
2023/01/05 11:59:44;;;;;;;0.00;0.00;;;;;;;;;;7380542;19;20148;-68
2023/01/05 12:02:28;;;;;;;0.10;0.10;;;;;;;;;;7383122;19;20140;-68
2023/01/05 12:05:03;;;;;;;0.00;0.00;;;;;;;;;;7381291;19;20243;-68
2023/01/05 12:07:34;;;;;;;0.00;0.00;;;;;;;;;;7380012;19;20153;-66
2023/01/05 12:10:07;;;;;;;0.03;0.03;;;;;;;;;;7382140;19;20135;-67
2023/01/05 12:12:45;;;;;;;0.03;0.03;;;;;;;;;;7379339;19;20178;-67
2023/01/05 12:15:25;;;;;;;0.00;0.00;;;;;;;;;;7378827;19;20144;-67
2023/01/05 12:18:02;;;;;;;0.00;0.00;;;;;;;;;;7377288;19;20197;-67
2023/01/05 12:20:43;;;;;;;0.00;0.00;;;;;;;;;;7380670;19;20208;-67
2023/01/05 12:23:31;;;;;;;0.00;0.00;;;;;;;;;;7381383;19;20133;-66
2023/01/05 12:26:06;;;;;;;0.10;0.10;;;;;;;;;;7378113;19;20149;-67
2023/01/05 12:28:50;;;;;;;0.00;0.00;;;;;;;;;;7380906;19;20141;-67
2023/01/05 12:31:26;;;;;;;0.10;0.10;;;;;;;;;;7378630;19;20631;-67
2023/01/05 12:34:03;;;;;;;0.10;0.10;;;;;;;;;;7379002;19;20153;-69
2023/01/05 12:36:44;;;;;;;0.00;0.00;;;;;;;;;;7378193;19;20213;-67
2023/01/05 12:39:30;;;;;;;0.07;0.07;;;;;;;;;;7381284;19;20144;-68
2023/01/05 12:42:09;;;;;;;0.10;0.10;;;;;;;;;;7377632;19;20178;-66
2023/01/05 12:44:45;;;;;;;0.10;0.10;;;;;;;;;;7381229;19;20133;-66
2023/01/05 12:47:24;;;;;;;0.10;0.10;;;;;;;;;;7376673;19;20233;-67
2023/01/05 12:49:57;;;;;;;0.00;0.00;;;;;;;;;;7380974;19;20220;-67
2023/01/05 12:52:31;;;;;;;0.10;0.10;;;;;;;;;;7377768;19;20152;-67
2023/01/05 12:55:05;;;;;;;0.03;0.03;;;;;;;;;;7378004;19;20156;-67
2023/01/05 12:57:37;;;;;;;0.03;0.03;;;;;;;;;;7376239;19;20180;-68
2023/01/05 13:00:13;;;;;;;0.00;0.00;;;;;;;;;;7378765;19;20649;-67
2023/01/05 13:02:44;;;;;;;0.00;0.00;;;;;;;;;;7378869;19;20133;-68
2023/01/05 13:05:17;;;;;;;0.03;0.03;;;;;;;;;;7377213;19;20156;-67
2023/01/05 13:07:52;;;;;;;0.00;0.00;;;;;;;;;;7375040;19;20188;-67
2023/01/05 13:10:23;;;;;;;0.00;0.00;;;;;;;;;;7377829;19;20152;-66
2023/01/05 13:12:55;;;;;;;0.00;0.00;;;;;;;;;;7376285;19;20166;-67
2023/01/05 13:15:31;;;;;;;0.10;0.10;;;;;;;;;;7376410;19;20160;-69
2023/01/05 13:18:02;;;;;;;0.00;0.00;;;;;;;;;;7376715;19;20152;-67
2023/01/05 13:20:35;;;;;;;0.00;0.00;;;;;;;;;;7375632;19;20255;-67
2023/01/05 13:23:10;;;;;;;0.00;0.00;;;;;;;;;;7376508;19;20148;-67
2023/01/05 13:25:46;;;;;;;0.00;0.00;;;;;;;;;;7375571;19;20160;-66
2023/01/05 13:28:19;;;;;;;0.00;0.00;;;;;;;;;;7376508;19;20137;-66
2023/01/05 13:30:55;;;;;;;0.00;0.00;;;;;;;;;;7375809;19;20500;-67
2023/01/05 13:33:38;;;;;;;0.10;0.10;;;;;;;;;;7376775;19;20607;-66
2023/01/05 13:36:12;;;;;;;0.00;0.00;;;;;;;;;;7374001;19;20178;-67
2023/01/05 13:38:58;;;;;;;0.00;0.00;;;;;;;;;;7376974;19;20132;-66
2023/01/05 13:41:34;;;;;;;0.00;0.00;;;;;;;;;;7376267;19;20636;-67
2023/01/05 13:44:18;;;;;;;0.10;0.10;;;;;;;;;;7374306;19;20153;-66
2023/01/05 13:46:55;;;;;;;0.03;0.03;;;;;;;;;;7372710;19;20177;-67
2023/01/05 13:49:40;;;;;;;0.00;0.00;;;;;;;;;;7376396;19;20141;-66
2023/01/05 13:52:12;;;;;;;0.00;0.00;;;;;;;;;;7375397;19;20137;-66
2023/01/05 13:54:46;;;;;;;0.10;0.10;;;;;;;;;;7375970;19;20152;-67
2023/01/05 13:57:16;;;;;;;0.00;0.00;;;;;;;;;;7373198;19;20184;-67
2023/01/05 13:59:45;;;;;;;0.00;0.00;;;;;;;;;;7376458;19;20153;-67
2023/01/05 14:02:29;;;;;;;0.00;0.00;;;;;;;;;;7374941;19;20166;-67
2023/01/05 14:04:58;;;;;;;0.10;0.10;;;;;;;;;;7374317;19;20165;-67
2023/01/05 14:07:28;;;;;;;0.10;0.10;;;;;;;;;;7374990;19;20155;-67
2023/01/05 14:10:02;;;;;;;0.00;0.00;;;;;;;;;;7373893;19;20160;-67
2023/01/05 14:12:46;;;;;;;0.00;0.00;;;;;;;;;;7374802;19;20153;-67
2023/01/05 14:15:29;;;;;;;0.00;0.00;;;;;;;;;;7373393;19;20634;-67
2023/01/05 14:18:00;;;;;;;0.00;0.00;;;;;;;;;;7374299;19;20157;-67
2023/01/05 14:20:43;;;;;;;0.00;0.00;;;;;;;;;;7375494;19;20141;-67
2023/01/05 14:23:28;;;;;;;0.00;0.00;;;;;;;;;;7372954;19;20153;-66
2023/01/05 14:26:01;;;;;;;0.03;0.03;;;;;;;;;;7374209;19;20603;-67
2023/01/05 14:28:54;;;;;;;0.00;0.00;;;;;;;;;;7373376;19;20623;-67
2023/01/05 14:31:41;;;;;;;0.00;0.00;;;;;;;;;;7373455;19;21023;-67
2023/01/05 14:34:15;;;;;;;0.00;0.00;;;;;;;;;;7376262;19;20653;-67
2023/01/05 14:36:45;;;;;;;0.10;0.10;;;;;;;;;;7372362;19;20662;-67
2023/01/05 14:39:25;;;;;;;0.10;0.10;;;;;;;;;;7374258;19;20202;-66
2023/01/05 14:42:08;;;;;;;0.00;0.00;;;;;;;;;;7373152;19;20272;-67
2023/01/05 14:44:38;;;;;;;0.00;0.00;;;;;;;;;;7372020;19;21280;-67
2023/01/05 14:47:08;;;;;;;0.00;0.00;;;;;;;;;;7371929;19;20228;-67
2023/01/05 14:49:39;;;;;;;0.10;0.10;;;;;;;;;;7373097;19;20622;-67
2023/01/05 14:52:09;;;;;;;0.00;0.00;;;;;;;;;;7373013;19;20232;-67
2023/01/05 14:55:05;;;;;;;0.10;0.10;;;;;;;;;;7374057;19;20603;-67
2023/01/05 14:57:41;;;;;;;0.07;0.07;;;;;;;;;;7369458;19;20663;-66
2023/01/05 15:00:15;;;;;;;0.10;0.10;;;;;;;;;;7373592;19;20175;-67
2023/01/05 15:02:48;;;;;;;0.00;0.00;;;;;;;;;;7374553;19;20627;-67
2023/01/05 15:05:18;;;;;;;0.10;0.10;;;;;;;;;;7373483;19;21100;-67
2023/01/05 15:07:50;;;;;;;0.00;0.00;;;;;;;;;;7370654;19;20707;-67
2023/01/05 15:10:24;;;;;;;0.10;0.10;;;;;;;;;;7372638;19;21384;-67
2023/01/05 15:13:04;;;;;;;0.10;0.10;;;;;;;;;;7374885;19;20668;-67
2023/01/05 15:15:43;;;;;;;0.10;0.10;;;;;;;;;;7372095;19;20726;-67
2023/01/05 15:18:27;;;;;;;0.10;0.10;;;;;;;;;;7372097;19;20891;-68
2023/01/05 15:21:11;;;;;;;0.10;0.10;;;;;;;;;;7372410;19;20678;-67
2023/01/05 15:24:08;;;;;;;0.03;0.03;;;;;;;;;;7372496;19;20690;-66
2023/01/05 15:26:47;;;;;;;0.00;0.00;;;;;;;;;;7371086;19;20721;-66
2023/01/05 15:29:27;;;;;;;0.00;0.00;;;;;;;;;;7373088;19;20622;-67
2023/01/05 15:31:59;;;;;;;0.07;0.07;;;;;;;;;;7372574;19;21480;-67
2023/01/05 15:34:31;;;;;;;0.00;0.00;;;;;;;;;;7372194;19;20758;-67
2023/01/05 15:37:03;;;;;;;0.00;0.00;;;;;;;;;;7372978;19;20643;-67
2023/01/05 15:39:34;;;;;;;0.00;0.00;;;;;;;;;;7374725;19;20587;-70
2023/01/05 15:42:04;;;;;;;0.10;0.10;;;;;;;;;;7372899;19;21053;-67
2023/01/05 15:44:38;;;;;;;0.00;0.00;;;;;;;;;;7376649;19;20611;-66
2023/01/05 15:47:10;;;;;;;0.00;0.00;;;;;;;;;;7378598;19;20753;-67
2023/01/05 15:49:40;;;;;;;0.03;0.03;;;;;;;;;;7378454;19;20733;-67
2023/01/05 15:52:19;;;;;;;0.00;0.00;;;;;;;;;;7379038;19;20675;-67